sensor_id;sensor_type;location;lat;lon;timestamp;P1;durP1;ratioP1;P2;durP2;ratioP2
35715;SDS011;21840;44.920;8.616;2022-10-16T00:01:34;13.70;;;8.82;;
35715;SDS011;21840;44.920;8.616;2022-10-16T00:04:00;14.98;;;9.05;;
35715;SDS011;21840;44.920;8.616;2022-10-16T00:06:28;21.85;;;9.15;;
35715;SDS011;21840;44.920;8.616;2022-10-16T00:08:55;17.48;;;8.75;;
35715;SDS011;21840;44.920;8.616;2022-10-16T00:11:22;23.10;;;9.77;;
35715;SDS011;21840;44.920;8.616;2022-10-16T00:13:59;15.70;;;8.45;;
35715;SDS011;21840;44.920;8.616;2022-10-16T00:16:26;14.50;;;8.73;;
35715;SDS011;21840;44.920;8.616;2022-10-16T00:18:52;15.65;;;8.57;;
35715;SDS011;21840;44.920;8.616;2022-10-16T00:21:20;19.52;;;10.13;;
35715;SDS011;21840;44.920;8.616;2022-10-16T00:23:49;18.00;;;9.45;;
35715;SDS011;21840;44.920;8.616;2022-10-16T00:26:17;15.45;;;8.60;;
35715;SDS011;21840;44.920;8.616;2022-10-16T00:28:45;17.40;;;9.38;;
35715;SDS011;21840;44.920;8.616;2022-10-16T00:31:14;17.30;;;9.18;;
35715;SDS011;21840;44.920;8.616;2022-10-16T00:33:41;18.48;;;9.38;;
35715;SDS011;21840;44.920;8.616;2022-10-16T00:36:08;14.98;;;8.32;;
35715;SDS011;21840;44.920;8.616;2022-10-16T00:38:37;17.70;;;8.10;;
35715;SDS011;21840;44.920;8.616;2022-10-16T00:41:10;18.17;;;8.18;;
35715;SDS011;21840;44.920;8.616;2022-10-16T00:43:42;13.95;;;7.97;;
35715;SDS011;21840;44.920;8.616;2022-10-16T00:46:13;19.10;;;9.25;;
35715;SDS011;21840;44.920;8.616;2022-10-16T00:48:48;20.30;;;9.43;;
35715;SDS011;21840;44.920;8.616;2022-10-16T00:51:18;18.05;;;10.43;;
35715;SDS011;21840;44.920;8.616;2022-10-16T00:53:47;19.25;;;11.43;;
35715;SDS011;21840;44.920;8.616;2022-10-16T00:56:14;22.15;;;10.60;;
35715;SDS011;21840;44.920;8.616;2022-10-16T00:58:39;18.35;;;9.63;;
35715;SDS011;21840;44.920;8.616;2022-10-16T01:01:05;16.23;;;9.50;;
35715;SDS011;21840;44.920;8.616;2022-10-16T01:03:32;17.52;;;9.95;;
35715;SDS011;21840;44.920;8.616;2022-10-16T01:08:49;17.50;;;9.07;;
35715;SDS011;21840;44.920;8.616;2022-10-16T01:21:59;14.88;;;9.15;;
35715;SDS011;21840;44.920;8.616;2022-10-16T01:37:35;16.13;;;9.55;;
35715;SDS011;21840;44.920;8.616;2022-10-16T01:40:10;20.40;;;9.38;;
35715;SDS011;21840;44.920;8.616;2022-10-16T01:42:42;13.95;;;8.75;;
35715;SDS011;21840;44.920;8.616;2022-10-16T01:45:12;13.98;;;8.35;;
35715;SDS011;21840;44.920;8.616;2022-10-16T01:47:43;12.95;;;9.00;;
35715;SDS011;21840;44.920;8.616;2022-10-16T01:50:09;16.00;;;9.88;;
35715;SDS011;21840;44.920;8.616;2022-10-16T01:52:36;16.50;;;8.95;;
35715;SDS011;21840;44.920;8.616;2022-10-16T01:55:06;19.15;;;9.88;;
35715;SDS011;21840;44.920;8.616;2022-10-16T01:57:36;17.13;;;10.13;;
35715;SDS011;21840;44.920;8.616;2022-10-16T02:00:07;19.92;;;10.18;;
35715;SDS011;21840;44.920;8.616;2022-10-16T02:02:39;19.42;;;9.65;;
35715;SDS011;21840;44.920;8.616;2022-10-16T02:05:24;19.20;;;10.02;;
35715;SDS011;21840;44.920;8.616;2022-10-16T02:07:53;20.58;;;9.38;;
35715;SDS011;21840;44.920;8.616;2022-10-16T02:10:19;20.15;;;9.55;;
35715;SDS011;21840;44.920;8.616;2022-10-16T02:12:48;20.27;;;9.73;;
35715;SDS011;21840;44.920;8.616;2022-10-16T02:15:21;20.05;;;8.25;;
35715;SDS011;21840;44.920;8.616;2022-10-16T02:17:47;14.68;;;7.78;;
35715;SDS011;21840;44.920;8.616;2022-10-16T02:20:12;12.55;;;6.60;;
35715;SDS011;21840;44.920;8.616;2022-10-16T02:22:39;15.40;;;7.05;;
35715;SDS011;21840;44.920;8.616;2022-10-16T02:30:25;17.33;;;6.47;;
35715;SDS011;21840;44.920;8.616;2022-10-16T02:32:53;13.18;;;7.75;;
35715;SDS011;21840;44.920;8.616;2022-10-16T02:35:21;13.85;;;7.65;;
35715;SDS011;21840;44.920;8.616;2022-10-16T02:37:48;19.55;;;7.63;;
35715;SDS011;21840;44.920;8.616;2022-10-16T02:40:15;18.33;;;7.90;;
35715;SDS011;21840;44.920;8.616;2022-10-16T02:42:42;14.18;;;6.28;;
35715;SDS011;21840;44.920;8.616;2022-10-16T02:45:08;13.50;;;6.85;;
35715;SDS011;21840;44.920;8.616;2022-10-16T02:47:35;10.50;;;6.25;;
35715;SDS011;21840;44.920;8.616;2022-10-16T02:50:01;11.10;;;6.45;;
35715;SDS011;21840;44.920;8.616;2022-10-16T02:52:26;12.25;;;6.45;;
35715;SDS011;21840;44.920;8.616;2022-10-16T02:54:52;13.73;;;6.55;;
35715;SDS011;21840;44.920;8.616;2022-10-16T02:57:17;11.35;;;5.60;;
35715;SDS011;21840;44.920;8.616;2022-10-16T02:59:43;11.02;;;5.82;;
35715;SDS011;21840;44.920;8.616;2022-10-16T03:02:09;13.00;;;6.57;;
35715;SDS011;21840;44.920;8.616;2022-10-16T03:04:35;18.00;;;5.95;;
35715;SDS011;21840;44.920;8.616;2022-10-16T03:07:01;10.85;;;5.82;;
35715;SDS011;21840;44.920;8.616;2022-10-16T03:09:27;11.18;;;6.38;;
35715;SDS011;21840;44.920;8.616;2022-10-16T03:11:52;9.05;;;5.97;;
35715;SDS011;21840;44.920;8.616;2022-10-16T03:14:18;13.57;;;5.95;;
35715;SDS011;21840;44.920;8.616;2022-10-16T03:16:43;16.55;;;6.00;;
35715;SDS011;21840;44.920;8.616;2022-10-16T03:19:09;10.02;;;6.20;;
35715;SDS011;21840;44.920;8.616;2022-10-16T03:21:34;11.85;;;5.70;;
35715;SDS011;21840;44.920;8.616;2022-10-16T03:24:00;10.93;;;6.07;;
35715;SDS011;21840;44.920;8.616;2022-10-16T03:26:25;16.90;;;5.70;;
35715;SDS011;21840;44.920;8.616;2022-10-16T03:28:51;10.80;;;5.97;;
35715;SDS011;21840;44.920;8.616;2022-10-16T03:31:16;8.55;;;5.32;;
35715;SDS011;21840;44.920;8.616;2022-10-16T03:33:42;15.65;;;5.70;;
35715;SDS011;21840;44.920;8.616;2022-10-16T03:36:08;11.30;;;6.60;;
35715;SDS011;21840;44.920;8.616;2022-10-16T03:38:33;13.40;;;6.50;;
35715;SDS011;21840;44.920;8.616;2022-10-16T03:40:59;13.15;;;6.50;;
35715;SDS011;21840;44.920;8.616;2022-10-16T03:43:24;20.83;;;6.75;;
35715;SDS011;21840;44.920;8.616;2022-10-16T03:45:50;14.13;;;6.10;;
35715;SDS011;21840;44.920;8.616;2022-10-16T03:48:17;14.05;;;6.43;;
35715;SDS011;21840;44.920;8.616;2022-10-16T03:50:43;10.20;;;6.78;;
35715;SDS011;21840;44.920;8.616;2022-10-16T03:53:13;13.88;;;6.78;;
35715;SDS011;21840;44.920;8.616;2022-10-16T03:55:41;11.23;;;5.82;;
35715;SDS011;21840;44.920;8.616;2022-10-16T03:58:07;15.60;;;5.57;;
35715;SDS011;21840;44.920;8.616;2022-10-16T04:00:32;18.38;;;6.00;;
35715;SDS011;21840;44.920;8.616;2022-10-16T04:02:58;11.95;;;5.90;;
35715;SDS011;21840;44.920;8.616;2022-10-16T04:05:23;13.82;;;7.03;;
35715;SDS011;21840;44.920;8.616;2022-10-16T04:07:49;10.18;;;5.75;;
35715;SDS011;21840;44.920;8.616;2022-10-16T04:10:14;15.60;;;6.47;;
35715;SDS011;21840;44.920;8.616;2022-10-16T04:12:40;11.02;;;5.95;;
35715;SDS011;21840;44.920;8.616;2022-10-16T04:15:05;12.82;;;6.43;;
35715;SDS011;21840;44.920;8.616;2022-10-16T04:17:31;8.63;;;5.97;;
35715;SDS011;21840;44.920;8.616;2022-10-16T04:19:57;10.70;;;7.18;;
35715;SDS011;21840;44.920;8.616;2022-10-16T04:22:22;18.35;;;6.93;;
35715;SDS011;21840;44.920;8.616;2022-10-16T04:24:48;12.73;;;7.22;;
35715;SDS011;21840;44.920;8.616;2022-10-16T04:27:13;14.52;;;7.03;;
35715;SDS011;21840;44.920;8.616;2022-10-16T04:29:41;18.52;;;6.93;;
35715;SDS011;21840;44.920;8.616;2022-10-16T04:32:08;9.90;;;6.60;;
35715;SDS011;21840;44.920;8.616;2022-10-16T04:34:34;16.27;;;7.78;;
35715;SDS011;21840;44.920;8.616;2022-10-16T04:36:59;18.23;;;7.00;;
35715;SDS011;21840;44.920;8.616;2022-10-16T04:39:25;19.30;;;7.78;;
35715;SDS011;21840;44.920;8.616;2022-10-16T04:41:50;22.30;;;7.53;;
35715;SDS011;21840;44.920;8.616;2022-10-16T04:44:16;13.05;;;6.93;;
35715;SDS011;21840;44.920;8.616;2022-10-16T04:46:42;17.48;;;6.90;;
35715;SDS011;21840;44.920;8.616;2022-10-16T04:49:07;15.60;;;7.68;;
35715;SDS011;21840;44.920;8.616;2022-10-16T04:51:33;24.35;;;7.90;;
35715;SDS011;21840;44.920;8.616;2022-10-16T04:53:58;16.35;;;7.22;;
35715;SDS011;21840;44.920;8.616;2022-10-16T04:56:24;9.63;;;6.65;;
35715;SDS011;21840;44.920;8.616;2022-10-16T04:58:49;12.70;;;7.43;;
35715;SDS011;21840;44.920;8.616;2022-10-16T05:01:15;15.10;;;6.65;;
35715;SDS011;21840;44.920;8.616;2022-10-16T05:03:40;15.45;;;6.97;;
35715;SDS011;21840;44.920;8.616;2022-10-16T05:06:06;11.77;;;6.38;;
35715;SDS011;21840;44.920;8.616;2022-10-16T05:08:35;13.07;;;7.28;;
35715;SDS011;21840;44.920;8.616;2022-10-16T05:11:01;15.95;;;7.38;;
35715;SDS011;21840;44.920;8.616;2022-10-16T05:13:27;20.38;;;6.60;;
35715;SDS011;21840;44.920;8.616;2022-10-16T05:15:55;10.85;;;5.40;;
35715;SDS011;21840;44.920;8.616;2022-10-16T05:18:22;11.70;;;5.63;;
35715;SDS011;21840;44.920;8.616;2022-10-16T05:20:47;13.27;;;6.07;;
35715;SDS011;21840;44.920;8.616;2022-10-16T05:23:13;16.52;;;6.82;;
35715;SDS011;21840;44.920;8.616;2022-10-16T05:25:39;15.15;;;6.95;;
35715;SDS011;21840;44.920;8.616;2022-10-16T05:28:04;17.85;;;7.35;;
35715;SDS011;21840;44.920;8.616;2022-10-16T05:30:29;19.20;;;7.22;;
35715;SDS011;21840;44.920;8.616;2022-10-16T05:32:55;16.92;;;6.57;;
35715;SDS011;21840;44.920;8.616;2022-10-16T05:35:21;12.70;;;7.20;;
35715;SDS011;21840;44.920;8.616;2022-10-16T05:37:47;14.18;;;7.95;;
35715;SDS011;21840;44.920;8.616;2022-10-16T05:40:12;13.23;;;8.32;;
35715;SDS011;21840;44.920;8.616;2022-10-16T05:42:39;11.80;;;7.53;;
35715;SDS011;21840;44.920;8.616;2022-10-16T05:45:11;21.13;;;8.02;;
35715;SDS011;21840;44.920;8.616;2022-10-16T05:47:37;22.10;;;8.35;;
35715;SDS011;21840;44.920;8.616;2022-10-16T05:50:03;15.77;;;8.07;;
35715;SDS011;21840;44.920;8.616;2022-10-16T05:52:29;14.25;;;8.10;;
35715;SDS011;21840;44.920;8.616;2022-10-16T05:54:54;16.00;;;8.15;;
35715;SDS011;21840;44.920;8.616;2022-10-16T05:57:20;34.13;;;12.60;;
35715;SDS011;21840;44.920;8.616;2022-10-16T05:59:45;16.92;;;8.75;;
35715;SDS011;21840;44.920;8.616;2022-10-16T06:02:17;16.10;;;8.93;;
35715;SDS011;21840;44.920;8.616;2022-10-16T06:04:42;16.40;;;8.40;;
35715;SDS011;21840;44.920;8.616;2022-10-16T06:07:08;21.48;;;9.05;;
35715;SDS011;21840;44.920;8.616;2022-10-16T06:09:33;16.55;;;8.88;;
35715;SDS011;21840;44.920;8.616;2022-10-16T06:11:59;20.27;;;10.10;;
35715;SDS011;21840;44.920;8.616;2022-10-16T06:14:24;18.00;;;9.38;;
35715;SDS011;21840;44.920;8.616;2022-10-16T06:16:50;12.70;;;8.73;;
35715;SDS011;21840;44.920;8.616;2022-10-16T06:19:15;20.55;;;10.45;;
35715;SDS011;21840;44.920;8.616;2022-10-16T06:21:42;53.65;;;26.17;;
35715;SDS011;21840;44.920;8.616;2022-10-16T06:24:09;38.33;;;21.92;;
35715;SDS011;21840;44.920;8.616;2022-10-16T06:26:35;62.83;;;31.88;;
35715;SDS011;21840;44.920;8.616;2022-10-16T06:29:00;60.47;;;33.00;;
35715;SDS011;21840;44.920;8.616;2022-10-16T06:31:29;72.05;;;37.88;;
35715;SDS011;21840;44.920;8.616;2022-10-16T06:33:58;84.47;;;43.17;;
35715;SDS011;21840;44.920;8.616;2022-10-16T06:36:24;60.03;;;34.30;;
35715;SDS011;21840;44.920;8.616;2022-10-16T06:38:50;41.45;;;20.58;;
35715;SDS011;21840;44.920;8.616;2022-10-16T06:41:16;40.85;;;22.55;;
35715;SDS011;21840;44.920;8.616;2022-10-16T06:43:43;37.53;;;21.13;;
35715;SDS011;21840;44.920;8.616;2022-10-16T06:46:13;47.63;;;26.65;;
35715;SDS011;21840;44.920;8.616;2022-10-16T06:48:41;40.88;;;24.38;;
35715;SDS011;21840;44.920;8.616;2022-10-16T06:51:16;38.70;;;19.40;;
35715;SDS011;21840;44.920;8.616;2022-10-16T06:53:44;41.95;;;24.42;;
35715;SDS011;21840;44.920;8.616;2022-10-16T06:56:25;62.90;;;26.10;;
35715;SDS011;21840;44.920;8.616;2022-10-16T06:58:52;36.13;;;21.50;;
35715;SDS011;21840;44.920;8.616;2022-10-16T07:01:19;34.83;;;16.38;;
35715;SDS011;21840;44.920;8.616;2022-10-16T07:03:48;22.35;;;14.30;;
35715;SDS011;21840;44.920;8.616;2022-10-16T07:06:15;31.38;;;14.90;;
35715;SDS011;21840;44.920;8.616;2022-10-16T07:08:46;28.02;;;13.27;;
35715;SDS011;21840;44.920;8.616;2022-10-16T07:11:13;25.13;;;15.45;;
35715;SDS011;21840;44.920;8.616;2022-10-16T07:13:42;26.50;;;15.27;;
35715;SDS011;21840;44.920;8.616;2022-10-16T07:16:10;32.88;;;14.00;;
35715;SDS011;21840;44.920;8.616;2022-10-16T07:18:37;17.02;;;12.45;;
35715;SDS011;21840;44.920;8.616;2022-10-16T07:21:18;20.83;;;12.30;;
35715;SDS011;21840;44.920;8.616;2022-10-16T07:23:45;21.13;;;11.90;;
35715;SDS011;21840;44.920;8.616;2022-10-16T07:26:16;15.63;;;10.85;;
35715;SDS011;21840;44.920;8.616;2022-10-16T07:28:42;23.05;;;11.43;;
35715;SDS011;21840;44.920;8.616;2022-10-16T07:31:10;22.88;;;10.80;;
35715;SDS011;21840;44.920;8.616;2022-10-16T07:33:37;20.38;;;10.90;;
35715;SDS011;21840;44.920;8.616;2022-10-16T07:36:03;20.88;;;10.40;;
35715;SDS011;21840;44.920;8.616;2022-10-16T07:38:29;22.42;;;10.77;;
35715;SDS011;21840;44.920;8.616;2022-10-16T07:40:56;21.00;;;10.60;;
35715;SDS011;21840;44.920;8.616;2022-10-16T07:43:26;16.45;;;8.60;;
35715;SDS011;21840;44.920;8.616;2022-10-16T07:45:52;21.80;;;9.52;;
35715;SDS011;21840;44.920;8.616;2022-10-16T07:48:19;20.92;;;10.32;;
35715;SDS011;21840;44.920;8.616;2022-10-16T07:50:44;21.40;;;11.48;;
35715;SDS011;21840;44.920;8.616;2022-10-16T07:53:13;19.40;;;11.43;;
35715;SDS011;21840;44.920;8.616;2022-10-16T07:55:39;20.48;;;11.77;;
35715;SDS011;21840;44.920;8.616;2022-10-16T07:58:05;20.23;;;11.77;;
35715;SDS011;21840;44.920;8.616;2022-10-16T08:00:31;21.00;;;11.55;;
35715;SDS011;21840;44.920;8.616;2022-10-16T08:02:57;15.90;;;11.07;;
35715;SDS011;21840;44.920;8.616;2022-10-16T08:05:27;24.02;;;11.93;;
35715;SDS011;21840;44.920;8.616;2022-10-16T08:07:53;25.80;;;11.85;;
35715;SDS011;21840;44.920;8.616;2022-10-16T08:10:19;22.40;;;13.15;;
35715;SDS011;21840;44.920;8.616;2022-10-16T08:12:47;26.55;;;13.20;;
35715;SDS011;21840;44.920;8.616;2022-10-16T08:15:13;22.95;;;13.30;;
35715;SDS011;21840;44.920;8.616;2022-10-16T08:17:38;30.63;;;14.13;;
35715;SDS011;21840;44.920;8.616;2022-10-16T08:20:04;23.13;;;12.48;;
35715;SDS011;21840;44.920;8.616;2022-10-16T08:22:30;23.70;;;13.02;;
35715;SDS011;21840;44.920;8.616;2022-10-16T08:24:55;22.33;;;13.68;;
35715;SDS011;21840;44.920;8.616;2022-10-16T08:27:21;31.45;;;13.52;;
35715;SDS011;21840;44.920;8.616;2022-10-16T08:29:48;25.15;;;12.88;;
35715;SDS011;21840;44.920;8.616;2022-10-16T08:32:14;24.48;;;12.57;;
35715;SDS011;21840;44.920;8.616;2022-10-16T08:34:39;26.17;;;14.90;;
35715;SDS011;21840;44.920;8.616;2022-10-16T08:37:08;31.58;;;17.17;;
35715;SDS011;21840;44.920;8.616;2022-10-16T08:39:36;33.22;;;18.15;;
35715;SDS011;21840;44.920;8.616;2022-10-16T08:42:15;32.60;;;18.63;;
35715;SDS011;21840;44.920;8.616;2022-10-16T08:50:24;36.13;;;20.15;;
35715;SDS011;21840;44.920;8.616;2022-10-16T08:52:53;42.50;;;22.00;;
35715;SDS011;21840;44.920;8.616;2022-10-16T08:55:28;41.08;;;22.83;;
35715;SDS011;21840;44.920;8.616;2022-10-16T08:58:10;41.42;;;22.55;;
35715;SDS011;21840;44.920;8.616;2022-10-16T09:00:40;46.58;;;23.83;;
35715;SDS011;21840;44.920;8.616;2022-10-16T09:08:46;39.72;;;25.23;;
35715;SDS011;21840;44.920;8.616;2022-10-16T09:17:34;48.38;;;26.90;;
35715;SDS011;21840;44.920;8.616;2022-10-16T09:20:13;50.50;;;29.75;;
35715;SDS011;21840;44.920;8.616;2022-10-16T09:23:18;53.50;;;28.77;;
35715;SDS011;21840;44.920;8.616;2022-10-16T09:25:50;48.60;;;29.75;;
35715;SDS011;21840;44.920;8.616;2022-10-16T09:28:17;48.97;;;31.70;;
35715;SDS011;21840;44.920;8.616;2022-10-16T09:30:43;48.92;;;32.55;;
35715;SDS011;21840;44.920;8.616;2022-10-16T09:33:10;54.83;;;33.55;;
35715;SDS011;21840;44.920;8.616;2022-10-16T09:38:05;61.25;;;36.22;;
35715;SDS011;21840;44.920;8.616;2022-10-16T09:40:35;63.08;;;40.28;;
35715;SDS011;21840;44.920;8.616;2022-10-16T09:45:40;62.10;;;38.75;;
35715;SDS011;21840;44.920;8.616;2022-10-16T09:48:10;66.38;;;39.25;;
35715;SDS011;21840;44.920;8.616;2022-10-16T09:50:37;77.05;;;44.75;;
35715;SDS011;21840;44.920;8.616;2022-10-16T09:53:13;66.60;;;44.22;;
35715;SDS011;21840;44.920;8.616;2022-10-16T09:55:49;68.57;;;43.97;;
35715;SDS011;21840;44.920;8.616;2022-10-16T09:58:20;72.15;;;43.22;;
35715;SDS011;21840;44.920;8.616;2022-10-16T10:00:49;62.92;;;42.95;;
35715;SDS011;21840;44.920;8.616;2022-10-16T10:03:30;67.38;;;43.80;;
35715;SDS011;21840;44.920;8.616;2022-10-16T10:06:45;74.43;;;44.28;;
35715;SDS011;21840;44.920;8.616;2022-10-16T10:11:44;64.45;;;43.00;;
35715;SDS011;21840;44.920;8.616;2022-10-16T10:14:23;67.88;;;42.40;;
35715;SDS011;21840;44.920;8.616;2022-10-16T10:16:52;71.63;;;44.83;;
35715;SDS011;21840;44.920;8.616;2022-10-16T10:22:25;73.22;;;45.63;;
35715;SDS011;21840;44.920;8.616;2022-10-16T10:25:15;74.05;;;44.60;;
35715;SDS011;21840;44.920;8.616;2022-10-16T10:27:44;69.30;;;42.42;;
35715;SDS011;21840;44.920;8.616;2022-10-16T10:33:03;63.72;;;38.63;;
35715;SDS011;21840;44.920;8.616;2022-10-16T10:46:51;74.22;;;43.00;;
35715;SDS011;21840;44.920;8.616;2022-10-16T11:06:04;66.65;;;39.63;;
35715;SDS011;21840;44.920;8.616;2022-10-16T11:11:16;63.78;;;38.80;;
35715;SDS011;21840;44.920;8.616;2022-10-16T11:13:56;57.40;;;37.38;;
35715;SDS011;21840;44.920;8.616;2022-10-16T11:16:35;61.08;;;37.20;;
35715;SDS011;21840;44.920;8.616;2022-10-16T11:19:11;49.28;;;33.78;;
35715;SDS011;21840;44.920;8.616;2022-10-16T11:22:07;47.38;;;31.75;;
35715;SDS011;21840;44.920;8.616;2022-10-16T11:24:35;57.35;;;32.38;;
35715;SDS011;21840;44.920;8.616;2022-10-16T11:27:12;58.72;;;35.28;;
35715;SDS011;21840;44.920;8.616;2022-10-16T11:30:04;54.05;;;36.22;;
35715;SDS011;21840;44.920;8.616;2022-10-16T11:35:34;56.80;;;35.83;;
35715;SDS011;21840;44.920;8.616;2022-10-16T11:38:30;56.00;;;36.55;;
35715;SDS011;21840;44.920;8.616;2022-10-16T11:40:59;61.05;;;37.58;;
35715;SDS011;21840;44.920;8.616;2022-10-16T11:43:46;54.10;;;37.25;;
35715;SDS011;21840;44.920;8.616;2022-10-16T11:46:21;49.05;;;30.45;;
35715;SDS011;21840;44.920;8.616;2022-10-16T11:48:57;47.33;;;30.58;;
35715;SDS011;21840;44.920;8.616;2022-10-16T11:54:14;51.30;;;31.58;;
35715;SDS011;21840;44.920;8.616;2022-10-16T11:57:02;51.15;;;31.90;;
35715;SDS011;21840;44.920;8.616;2022-10-16T11:59:57;45.92;;;29.67;;
35715;SDS011;21840;44.920;8.616;2022-10-16T12:08:18;40.75;;;24.67;;
35715;SDS011;21840;44.920;8.616;2022-10-16T12:10:51;39.80;;;27.10;;
35715;SDS011;21840;44.920;8.616;2022-10-16T12:13:28;46.67;;;26.77;;
35715;SDS011;21840;44.920;8.616;2022-10-16T12:16:04;35.28;;;24.45;;
35715;SDS011;21840;44.920;8.616;2022-10-16T12:19:02;35.10;;;22.20;;
35715;SDS011;21840;44.920;8.616;2022-10-16T12:21:48;35.90;;;22.80;;
35715;SDS011;21840;44.920;8.616;2022-10-16T12:24:58;35.55;;;23.55;;
35715;SDS011;21840;44.920;8.616;2022-10-16T12:29:59;30.27;;;19.88;;
35715;SDS011;21840;44.920;8.616;2022-10-16T12:32:34;33.30;;;19.37;;
35715;SDS011;21840;44.920;8.616;2022-10-16T12:35:03;35.63;;;18.77;;
35715;SDS011;21840;44.920;8.616;2022-10-16T12:37:31;27.20;;;17.30;;
35715;SDS011;21840;44.920;8.616;2022-10-16T12:39:59;34.20;;;19.88;;
35715;SDS011;21840;44.920;8.616;2022-10-16T12:42:39;36.20;;;19.45;;
35715;SDS011;21840;44.920;8.616;2022-10-16T12:45:24;30.05;;;18.45;;
35715;SDS011;21840;44.920;8.616;2022-10-16T12:47:53;27.30;;;18.67;;
35715;SDS011;21840;44.920;8.616;2022-10-16T12:50:28;34.65;;;17.85;;
35715;SDS011;21840;44.920;8.616;2022-10-16T12:55:22;28.90;;;17.88;;
35715;SDS011;21840;44.920;8.616;2022-10-16T13:00:56;34.10;;;23.13;;
35715;SDS011;21840;44.920;8.616;2022-10-16T13:11:38;32.08;;;23.23;;
35715;SDS011;21840;44.920;8.616;2022-10-16T13:28:48;36.60;;;21.77;;
35715;SDS011;21840;44.920;8.616;2022-10-16T13:31:15;31.98;;;22.27;;
35715;SDS011;21840;44.920;8.616;2022-10-16T13:33:49;35.33;;;21.98;;
35715;SDS011;21840;44.920;8.616;2022-10-16T13:36:21;38.50;;;23.40;;
35715;SDS011;21840;44.920;8.616;2022-10-16T13:38:48;33.83;;;22.40;;
35715;SDS011;21840;44.920;8.616;2022-10-16T13:41:24;37.85;;;21.98;;
35715;SDS011;21840;44.920;8.616;2022-10-16T13:43:50;34.13;;;22.65;;
35715;SDS011;21840;44.920;8.616;2022-10-16T13:46:18;38.65;;;22.75;;
35715;SDS011;21840;44.920;8.616;2022-10-16T13:49:11;36.50;;;20.23;;
35715;SDS011;21840;44.920;8.616;2022-10-16T13:51:37;29.95;;;19.85;;
35715;SDS011;21840;44.920;8.616;2022-10-16T13:54:03;28.33;;;17.75;;
35715;SDS011;21840;44.920;8.616;2022-10-16T13:56:29;32.25;;;20.20;;
35715;SDS011;21840;44.920;8.616;2022-10-16T13:58:58;33.47;;;21.20;;
35715;SDS011;21840;44.920;8.616;2022-10-16T14:01:26;30.90;;;22.02;;
35715;SDS011;21840;44.920;8.616;2022-10-16T14:04:04;38.25;;;22.95;;
35715;SDS011;21840;44.920;8.616;2022-10-16T14:06:32;29.17;;;20.00;;
35715;SDS011;21840;44.920;8.616;2022-10-16T14:11:32;35.97;;;20.58;;
35715;SDS011;21840;44.920;8.616;2022-10-16T14:14:11;33.28;;;19.77;;
35715;SDS011;21840;44.920;8.616;2022-10-16T14:16:37;29.08;;;18.10;;
35715;SDS011;21840;44.920;8.616;2022-10-16T14:19:13;27.45;;;15.93;;
35715;SDS011;21840;44.920;8.616;2022-10-16T14:21:44;27.75;;;15.30;;
35715;SDS011;21840;44.920;8.616;2022-10-16T14:24:10;31.58;;;17.75;;
35715;SDS011;21840;44.920;8.616;2022-10-16T14:26:50;24.30;;;14.18;;
35715;SDS011;21840;44.920;8.616;2022-10-16T14:29:20;26.33;;;13.82;;
35715;SDS011;21840;44.920;8.616;2022-10-16T14:32:02;23.45;;;13.98;;
35715;SDS011;21840;44.920;8.616;2022-10-16T14:34:31;26.90;;;13.68;;
35715;SDS011;21840;44.920;8.616;2022-10-16T14:36:58;25.20;;;14.35;;
35715;SDS011;21840;44.920;8.616;2022-10-16T14:39:32;24.60;;;13.73;;
35715;SDS011;21840;44.920;8.616;2022-10-16T14:41:58;18.23;;;12.80;;
35715;SDS011;21840;44.920;8.616;2022-10-16T14:44:27;20.13;;;12.35;;
35715;SDS011;21840;44.920;8.616;2022-10-16T14:46:56;23.15;;;13.10;;
35715;SDS011;21840;44.920;8.616;2022-10-16T14:49:22;20.67;;;14.05;;
35715;SDS011;21840;44.920;8.616;2022-10-16T14:51:49;25.23;;;12.82;;
35715;SDS011;21840;44.920;8.616;2022-10-16T14:54:15;24.95;;;12.27;;
35715;SDS011;21840;44.920;8.616;2022-10-16T14:59:15;25.17;;;11.18;;
35715;SDS011;21840;44.920;8.616;2022-10-16T15:01:44;20.13;;;10.40;;
35715;SDS011;21840;44.920;8.616;2022-10-16T15:04:10;17.25;;;10.55;;
35715;SDS011;21840;44.920;8.616;2022-10-16T15:06:37;17.42;;;10.20;;
35715;SDS011;21840;44.920;8.616;2022-10-16T15:09:03;17.30;;;10.35;;
35715;SDS011;21840;44.920;8.616;2022-10-16T15:11:29;19.98;;;11.20;;
35715;SDS011;21840;44.920;8.616;2022-10-16T15:13:57;20.70;;;11.23;;
35715;SDS011;21840;44.920;8.616;2022-10-16T15:16:23;25.60;;;12.73;;
35715;SDS011;21840;44.920;8.616;2022-10-16T15:18:49;21.02;;;12.25;;
35715;SDS011;21840;44.920;8.616;2022-10-16T15:21:29;22.92;;;11.25;;
35715;SDS011;21840;44.920;8.616;2022-10-16T15:23:56;13.53;;;9.77;;
35715;SDS011;21840;44.920;8.616;2022-10-16T15:26:24;23.02;;;10.82;;
35715;SDS011;21840;44.920;8.616;2022-10-16T15:28:54;18.42;;;11.15;;
35715;SDS011;21840;44.920;8.616;2022-10-16T15:31:20;20.05;;;10.88;;
35715;SDS011;21840;44.920;8.616;2022-10-16T15:33:49;18.08;;;8.93;;
35715;SDS011;21840;44.920;8.616;2022-10-16T15:36:28;24.00;;;10.25;;
35715;SDS011;21840;44.920;8.616;2022-10-16T15:38:55;17.95;;;9.23;;
35715;SDS011;21840;44.920;8.616;2022-10-16T15:41:21;18.67;;;9.27;;
35715;SDS011;21840;44.920;8.616;2022-10-16T15:43:48;15.35;;;8.90;;
35715;SDS011;21840;44.920;8.616;2022-10-16T15:46:20;14.52;;;8.70;;
35715;SDS011;21840;44.920;8.616;2022-10-16T15:48:51;20.25;;;9.93;;
35715;SDS011;21840;44.920;8.616;2022-10-16T15:51:24;14.27;;;9.75;;
35715;SDS011;21840;44.920;8.616;2022-10-16T15:53:57;15.63;;;9.70;;
35715;SDS011;21840;44.920;8.616;2022-10-16T15:56:23;19.48;;;10.57;;
35715;SDS011;21840;44.920;8.616;2022-10-16T15:58:50;14.50;;;8.93;;
35715;SDS011;21840;44.920;8.616;2022-10-16T16:01:19;15.55;;;9.90;;
35715;SDS011;21840;44.920;8.616;2022-10-16T16:03:48;18.95;;;10.07;;
35715;SDS011;21840;44.920;8.616;2022-10-16T16:06:23;19.90;;;10.05;;
35715;SDS011;21840;44.920;8.616;2022-10-16T16:08:51;17.43;;;9.70;;
35715;SDS011;21840;44.920;8.616;2022-10-16T16:11:20;20.98;;;10.57;;
35715;SDS011;21840;44.920;8.616;2022-10-16T16:13:47;26.17;;;10.75;;
35715;SDS011;21840;44.920;8.616;2022-10-16T16:16:13;16.27;;;10.68;;
35715;SDS011;21840;44.920;8.616;2022-10-16T16:18:45;19.27;;;10.90;;
35715;SDS011;21840;44.920;8.616;2022-10-16T16:21:17;20.10;;;11.43;;
35715;SDS011;21840;44.920;8.616;2022-10-16T16:23:43;23.83;;;10.77;;
35715;SDS011;21840;44.920;8.616;2022-10-16T16:26:12;21.73;;;11.07;;
35715;SDS011;21840;44.920;8.616;2022-10-16T16:28:51;19.08;;;11.35;;
35715;SDS011;21840;44.920;8.616;2022-10-16T16:31:25;18.15;;;11.15;;
35715;SDS011;21840;44.920;8.616;2022-10-16T16:33:51;20.48;;;10.90;;
35715;SDS011;21840;44.920;8.616;2022-10-16T16:36:17;20.77;;;10.27;;
35715;SDS011;21840;44.920;8.616;2022-10-16T16:38:44;19.90;;;11.48;;
35715;SDS011;21840;44.920;8.616;2022-10-16T16:41:11;22.10;;;10.35;;
35715;SDS011;21840;44.920;8.616;2022-10-16T16:43:41;18.92;;;10.50;;
35715;SDS011;21840;44.920;8.616;2022-10-16T16:46:10;14.75;;;10.23;;
35715;SDS011;21840;44.920;8.616;2022-10-16T16:48:36;14.40;;;11.00;;
35715;SDS011;21840;44.920;8.616;2022-10-16T16:51:06;21.27;;;11.75;;
35715;SDS011;21840;44.920;8.616;2022-10-16T16:53:40;27.52;;;10.32;;
35715;SDS011;21840;44.920;8.616;2022-10-16T16:56:06;19.55;;;9.93;;
35715;SDS011;21840;44.920;8.616;2022-10-16T16:58:32;16.92;;;9.52;;
35715;SDS011;21840;44.920;8.616;2022-10-16T17:00:58;18.75;;;10.50;;